Meteo Giornale » Osservazioni meteo Italia » Aosta

ore: 20:20 - Osservazioni Meteo Aosta
Lat. 45° 44' N Lon. 7° 22' E Alt. 546 metri s.l.m.

sereno

25 °C

Sereno

Temp. 24 Ore

12 °C

31 °C

Est

13 Km/h

Dew point 14 °C

Umidità 50 %

Visibilità  10 Km

Il sole sorge alle ore 06:52

Il sole tramonta alle ore 20:07

Data e Ora Cielo e Fenomeni T °C DP °C Um. % Pres. hPa Vis. km Vento km/h
Ieri h: 20:20 sereno Sereno 25 14 50 1019 10 E 13
Ieri h: 19:50 sereno Sereno 25 15 53 1018 10 E 20.3
Ieri h: 19:20 sereno Sereno 26 15 50 1018 10 E 24
Ieri h: 18:50 sereno Sereno 27 14 44 1018 10 E 24
Ieri h: 18:20 sereno Sereno 27 14 44 1017 10 E 24
Ieri h: 17:50 sereno Sereno 29 15 42 1017 10 E 24
Ieri h: 17:20 sereno Sereno 29 13 37 1017 10 E 25.9
Ieri h: 16:50 sereno Sereno 30 12 33 1017 10 E 25.9
Ieri h: 16:20 sereno Sereno 31 11 29 1017 10 E 22.2
Ieri h: 15:50 sereno Sereno 31 7 22 1017 10 E 20.3
Ieri h: 15:20 sereno Sereno 30 8 25 1018 10 E 20.3
Ieri h: 14:50 sereno Sereno 30 8 25 1018 10 E 18.5
Ieri h: 13:50 sereno Sereno 28 4 21 1019 10 E 14.8
Ieri h: 13:20 sereno Sereno 27 6 26 1020 10 N 5.5
Ieri h: 12:50 sereno Sereno 27 5 24 1020 10 N 3.7
Ieri h: 11:50 sereno Sereno 24 5 29 1021 10 N 3.7
Ieri h: 11:20 sereno Sereno 23 7 35 1021 10 N 1.8
Ieri h: 10:20 sereno Sereno 20 7 42 1022 10 N 3.7
Ieri h: 09:50 sereno Sereno 19 7 45 1022 10 N 3.7
Ieri h: 09:20 sereno Sereno 18 8 51 1022 10 N 0
Ieri h: 08:20 sereno Sereno 15 8 62 1022 10 N 3.7
Ieri h: 07:50 sereno Sereno 13 7 66 1022 10 N 0
Ieri h: 07:20 sereno Sereno 12 7 71 1022 10 N 0
Ieri h: 06:50 sereno Sereno 13 8 71 1022 10 N 0